Rijnsburg, Netherlands
Current Conditions -  °F | °C
As of 11:55 AM on Friday 28 Nov 2014 (Local Time) from EHAM Reporting Station
Light Rain Light Rain  
Wind Chill: 39°   Ceiling: Unl
Heat Index: 45°   Visibility: 5mi
Dew Point: 41°   Wind: 12mph
Humidity: 87%   Direction: 90°E
Pressure: 29.77"   Gusts: NA
Location:  52.19°N, 4.44°E
Report Text: EHAM 281055Z 09010KT 070V130 8000 -RA NSC 07/05 Q1008 NOSIG
Loading
Personal Weather Stations






























Interactive Weather Map New forecast layout! Learn more

10-Day Weather Forecast

Advertisements
Track Severe Weather on mobile